Historyczne dane pomiarowe

Dodano dane terminowe – wersja testowa.

Dane z okresu 1951-2019

Wersja bazy: 1.34 [2019-03-16, lista zmian], aktualizacja planowana na 2019-04-15

Dane meteo z obszaru Polski uzyskane na podstawie danych udostępnionych przez Instytut Meteorologii i Gospodarki Wodnej – Państwowy Instytut Badawczy.

 

Wybierz Datę:    

       

TemperaturaWilgotnośćWiatrCiśnienieOpadyŚniegCzas trwania zjawisk
 Stacja t tx tn tng RH VA  wxwx mslp ppp RRR   cm mm wxwxwxwxwxwxwx
1975-07-30 13.8 19.8 7.5- 82.0- 5.7 0.3---- 2.4------------
1975-07-29 16.9 22.7 12.5- 78.5- 5.3 2.0---- 0.0------------
1975-07-28 12.4 14.3 10.4- 85.3- 7.3 1.3---- 2.6------------
1975-07-27 12.1 17.2 7.2- 80.5- 7.3 1.7---- 13.3------------
1975-07-26 11.5 13.8 9.6- 84.8- 8.0 2.0---- 2.3------------
1975-07-25 15.8 21.8 12.9- 89.5- 8.0 4.0---- 24.0------------
1975-07-24 18.2 24.8 9.5- 83.3- 3.0 1.7---- 2.4------------
1975-07-23 16.4 25.3 8.0- 80.8- 3.3 0.3---- 0.0------------
1975-07-22 15.9 20.7 14.0- 88.5- 8.0 0.7---- 2.0------------
1975-07-21 14.6 15.8 13.2- 90.3- 8.0 1.0---- 7.4------------
1975-07-20 15.7 22.1 13.9- 89.3- 8.0 2.0---- 10.6------------
1975-07-19 16.8 22.2 13.0- 85.8- 7.3 0.7---- 11.4------------
1975-07-18 17.3 25.0 8.5- 78.0- 4.0 1.3---- 28.7------------
1975-07-17 18.7 23.7 14.5- 73.0- 4.7 0.7---- 0.0------------
1975-07-16 20.4 23.1 15.9- 80.5- 5.7 0.7---- 10.8------------
1975-07-15 21.2 27.2 12.0- 69.5- 1.7 1.3---- 0.0------------
1975-07-14 19.1 26.2 13.0- 78.8- 4.7 1.0---- 0.0------------
1975-07-13 18.0 24.7 12.4- 83.5- 8.0 1.0---- 0.0------------
1975-07-12 19.3 23.7 15.1- 69.3- 6.0 0.7---- 0.0------------
1975-07-11 17.8 25.7 8.8- 79.0- 5.0 0.3---- 9.4------------
1975-07-10 18.5 26.4 7.0- 67.0- 2.7 1.0---- 0.0------------
1975-07-09 16.7 24.9 6.5- 68.8- 1.3 0.7---- 0.0------------
1975-07-08 16.2 23.4 6.6- 67.8- 2.3 1.3---- 0.0------------
1975-07-07 15.7 23.4 9.4- 78.3- 2.7 1.3---- 12.6------------
1975-07-06 16.4 23.4 7.6- 73.0- 2.0 1.0---- 0.0------------
1975-07-05 16.8 23.7 8.6- 75.8- 1.3 1.0---- 0.0------------
1975-07-04 15.7 23.9 7.5- 79.3- 3.3 1.0---- 0.0------------
1975-07-03 17.7 23.7 8.2- 70.8- 1.3 1.3---- 0.0------------
1975-07-02 18.0 22.7 13.5- 69.3- 0.7 2.3---- 0.0------------
1975-07-01 13.5 16.4 11.0- 90.8- 8.0 0.7---- 1.2------------
1975-06-30 11.2 12.9 8.4- 91.0- 8.0 1.3---- 1.0------------
1975-06-29 11.5 18.8 10.6- 91.5- 8.0 1.0---- 0.2------------
1975-06-28 17.5 25.1 7.8- 73.8- 1.7 0.3---- 2.7------------
1975-06-27 15.4 24.3 4.6- 70.3- 0.0 1.0---- 0.0------------
1975-06-26 16.3 21.4 9.4- 71.0- 0.3 1.0---- 0.0------------
1975-06-25 16.7 21.9 13.0- 90.3- 8.0 0.7---- 5.6------------
1975-06-24 20.1 26.9 11.2- 75.0- 2.7 0.7---- 0.0------------
1975-06-23 17.3 26.4 12.5- 92.5- 5.0 0.3---- 1.4------------
1975-06-22 18.6 25.9 12.4- 83.3- 2.3 0.7---- 2.2------------
1975-06-21 19.3 24.4 13.3- 81.8- 5.3 1.0---- 0.0------------
1975-06-20 19.0 25.5 15.9- 82.8- 5.3 0.7---- 15.6------------
1975-06-19 16.2 17.9 14.4- 91.0- 8.0 1.3---- 0.0------------
1975-06-18 14.1 15.0 12.5- 95.0- 8.0 1.7---- 4.8------------
1975-06-17 17.0 19.4 14.9- 84.3- 7.0 2.0---- 6.4------------
1975-06-16 21.0 24.8 17.9- 70.5- 4.7 2.0---- 21.8------------
1975-06-15 17.8 23.9 12.4- 79.8- 3.3 1.7---- 0.0------------
1975-06-14 16.8 20.5 13.0- 84.5- 8.0 0.7---- 0.0------------
1975-06-13 16.2 24.1 6.0- 77.8- 4.0 1.3---- 29.2------------
1975-06-12 17.5 22.4 11.8- 69.3- 2.3 1.3---- 0.0------------
1975-06-11 14.3 21.8 6.2- 77.8- 3.7 1.0---- 0.0------------
1975-06-10 13.7 18.9 10.0- 75.0- 6.0 0.7---- 0.0------------
1975-06-09 11.8 17.9 8.5- 80.3- 8.0 2.0---- 0.0------------
1975-06-08 12.2 15.3 8.6- 85.5- 8.0 1.7---- 3.8------------
1975-06-07 8.6 9.0 7.5- 94.5- 8.0 2.3---- 11.2------------
1975-06-06 8.0 10.0 6.8- 77.8- 8.0 3.0---- 7.2------------
1975-06-05 9.9 12.5 6.8- 62.8- 3.7 4.7---- 0.0------------
1975-06-04 9.7 11.6 6.4- 88.3- 8.0 0.3---- 0.8------------
1975-06-03 10.3 15.9 7.5- 90.0- 6.0 0.0---- 0.0------------
1975-06-02 7.8 9.0 6.0- 95.0- 8.0 0.3---- 10.3------------
1975-06-01 8.7 12.9 7.0- 92.8- 8.0 0.7---- 11.2------------
479.2 ms

 

Źródłem pochodzenia danych jest Instytut Meteorologii i Gospodarki Wodnej – Państwowy Instytut Badawczy. Dane Instytutu Meteorologii i Gospodarki Wodnej – Państwowego Instytutu Badawczego zostały przetworzone.

Dane źródłowe można odnaleźć na stronie https://dane.imgw.pl